sensor_id;sensor_type;location;lat;lon;timestamp;P1;durP1;ratioP1;P2;durP2;ratioP2
9424;SDS011;17139;52.140;11.636;2022-11-13T00:00:50;5.90;;;5.60;;
9424;SDS011;17139;52.140;11.636;2022-11-13T00:03:17;7.20;;;6.53;;
9424;SDS011;17139;52.140;11.636;2022-11-13T00:05:46;6.47;;;5.97;;
9424;SDS011;17139;52.140;11.636;2022-11-13T00:08:13;11.27;;;10.07;;
9424;SDS011;17139;52.140;11.636;2022-11-13T00:10:40;7.67;;;7.17;;
9424;SDS011;17139;52.140;11.636;2022-11-13T00:13:07;13.23;;;11.88;;
9424;SDS011;17139;52.140;11.636;2022-11-13T00:15:34;7.70;;;7.00;;
9424;SDS011;17139;52.140;11.636;2022-11-13T00:18:01;7.83;;;6.53;;
9424;SDS011;17139;52.140;11.636;2022-11-13T00:20:28;7.57;;;6.87;;
9424;SDS011;17139;52.140;11.636;2022-11-13T00:22:57;6.43;;;6.03;;
9424;SDS011;17139;52.140;11.636;2022-11-13T00:25:24;6.33;;;5.93;;
9424;SDS011;17139;52.140;11.636;2022-11-13T00:27:51;7.20;;;6.50;;
9424;SDS011;17139;52.140;11.636;2022-11-13T00:30:18;6.60;;;6.00;;
9424;SDS011;17139;52.140;11.636;2022-11-13T00:32:45;6.27;;;5.77;;
9424;SDS011;17139;52.140;11.636;2022-11-13T00:35:12;8.13;;;6.23;;
9424;SDS011;17139;52.140;11.636;2022-11-13T00:37:39;6.25;;;5.75;;
9424;SDS011;17139;52.140;11.636;2022-11-13T00:40:08;6.63;;;6.13;;
9424;SDS011;17139;52.140;11.636;2022-11-13T00:42:35;5.97;;;5.57;;
9424;SDS011;17139;52.140;11.636;2022-11-13T00:45:03;10.60;;;9.48;;
9424;SDS011;17139;52.140;11.636;2022-11-13T00:47:33;7.73;;;7.13;;
9424;SDS011;17139;52.140;11.636;2022-11-13T00:50:00;6.83;;;6.37;;
9424;SDS011;17139;52.140;11.636;2022-11-13T00:52:27;7.23;;;6.57;;
9424;SDS011;17139;52.140;11.636;2022-11-13T00:54:54;6.93;;;6.43;;
9424;SDS011;17139;52.140;11.636;2022-11-13T00:57:22;7.73;;;7.07;;
9424;SDS011;17139;52.140;11.636;2022-11-13T00:59:49;6.83;;;6.30;;
9424;SDS011;17139;52.140;11.636;2022-11-13T01:02:16;10.73;;;6.57;;
9424;SDS011;17139;52.140;11.636;2022-11-13T01:04:43;6.77;;;6.17;;
9424;SDS011;17139;52.140;11.636;2022-11-13T01:07:10;6.03;;;5.50;;
9424;SDS011;17139;52.140;11.636;2022-11-13T01:09:38;6.53;;;6.03;;
9424;SDS011;17139;52.140;11.636;2022-11-13T01:12:05;11.52;;;10.23;;
9424;SDS011;17139;52.140;11.636;2022-11-13T01:14:33;7.43;;;6.77;;
9424;SDS011;17139;52.140;11.636;2022-11-13T01:17:01;7.22;;;6.60;;
9424;SDS011;17139;52.140;11.636;2022-11-13T01:19:28;10.23;;;6.47;;
9424;SDS011;17139;52.140;11.636;2022-11-13T01:21:55;6.93;;;6.37;;
9424;SDS011;17139;52.140;11.636;2022-11-13T01:24:22;6.67;;;5.80;;
9424;SDS011;17139;52.140;11.636;2022-11-13T01:26:49;5.80;;;5.40;;
9424;SDS011;17139;52.140;11.636;2022-11-13T01:29:16;4.93;;;4.57;;
9424;SDS011;17139;52.140;11.636;2022-11-13T01:31:44;5.63;;;5.13;;
9424;SDS011;17139;52.140;11.636;2022-11-13T01:34:12;6.10;;;5.70;;
9424;SDS011;17139;52.140;11.636;2022-11-13T01:36:39;5.07;;;4.77;;
9424;SDS011;17139;52.140;11.636;2022-11-13T01:39:08;4.97;;;4.73;;
9424;SDS011;17139;52.140;11.636;2022-11-13T01:41:35;8.50;;;5.93;;
9424;SDS011;17139;52.140;11.636;2022-11-13T01:44:03;4.60;;;4.33;;
9424;SDS011;17139;52.140;11.636;2022-11-13T01:46:32;5.27;;;4.87;;
9424;SDS011;17139;52.140;11.636;2022-11-13T01:49:14;5.40;;;5.00;;
9424;SDS011;17139;52.140;11.636;2022-11-13T01:51:51;11.98;;;10.35;;
9424;SDS011;17139;52.140;11.636;2022-11-13T01:54:22;6.63;;;5.80;;
9424;SDS011;17139;52.140;11.636;2022-11-13T01:56:51;5.53;;;5.10;;
9424;SDS011;17139;52.140;11.636;2022-11-13T01:59:20;6.63;;;5.53;;
9424;SDS011;17139;52.140;11.636;2022-11-13T02:01:49;6.30;;;5.80;;
9424;SDS011;17139;52.140;11.636;2022-11-13T02:04:18;5.27;;;4.97;;
9424;SDS011;17139;52.140;11.636;2022-11-13T02:06:46;5.10;;;4.80;;
9424;SDS011;17139;52.140;11.636;2022-11-13T02:09:15;5.00;;;4.60;;
9424;SDS011;17139;52.140;11.636;2022-11-13T02:11:45;5.87;;;5.30;;
9424;SDS011;17139;52.140;11.636;2022-11-13T02:14:13;5.83;;;5.40;;
9424;SDS011;17139;52.140;11.636;2022-11-13T02:16:43;5.00;;;4.60;;
9424;SDS011;17139;52.140;11.636;2022-11-13T02:19:14;4.77;;;4.47;;
9424;SDS011;17139;52.140;11.636;2022-11-13T02:21:49;12.30;;;9.10;;
9424;SDS011;17139;52.140;11.636;2022-11-13T02:24:26;5.60;;;5.20;;
9424;SDS011;17139;52.140;11.636;2022-11-13T02:26:57;5.47;;;5.07;;
9424;SDS011;17139;52.140;11.636;2022-11-13T02:29:27;5.13;;;4.63;;
9424;SDS011;17139;52.140;11.636;2022-11-13T02:31:54;4.73;;;4.43;;
9424;SDS011;17139;52.140;11.636;2022-11-13T02:34:22;5.77;;;5.27;;
9424;SDS011;17139;52.140;11.636;2022-11-13T02:36:49;5.50;;;5.00;;
9424;SDS011;17139;52.140;11.636;2022-11-13T02:39:16;5.53;;;5.13;;
9424;SDS011;17139;52.140;11.636;2022-11-13T02:41:45;8.13;;;5.03;;
9424;SDS011;17139;52.140;11.636;2022-11-13T02:44:12;14.93;;;5.73;;
9424;SDS011;17139;52.140;11.636;2022-11-13T02:46:39;8.68;;;7.32;;
9424;SDS011;17139;52.140;11.636;2022-11-13T02:49:06;5.37;;;4.87;;
9424;SDS011;17139;52.140;11.636;2022-11-13T02:51:33;7.47;;;6.80;;
9424;SDS011;17139;52.140;11.636;2022-11-13T02:54:00;6.07;;;5.27;;
9424;SDS011;17139;52.140;11.636;2022-11-13T02:56:27;5.10;;;4.60;;
9424;SDS011;17139;52.140;11.636;2022-11-13T02:58:56;5.23;;;4.73;;
9424;SDS011;17139;52.140;11.636;2022-11-13T03:01:23;6.27;;;4.67;;
9424;SDS011;17139;52.140;11.636;2022-11-13T03:03:50;5.50;;;5.10;;
9424;SDS011;17139;52.140;11.636;2022-11-13T03:06:17;5.40;;;4.90;;
9424;SDS011;17139;52.140;11.636;2022-11-13T03:08:44;4.93;;;4.57;;
9424;SDS011;17139;52.140;11.636;2022-11-13T03:11:11;4.87;;;4.50;;
9424;SDS011;17139;52.140;11.636;2022-11-13T03:13:38;5.13;;;4.77;;
9424;SDS011;17139;52.140;11.636;2022-11-13T03:16:08;6.03;;;5.53;;
9424;SDS011;17139;52.140;11.636;2022-11-13T03:18:36;6.18;;;5.68;;
9424;SDS011;17139;52.140;11.636;2022-11-13T03:21:08;6.37;;;5.33;;
9424;SDS011;17139;52.140;11.636;2022-11-13T03:23:37;7.70;;;4.77;;
9424;SDS011;17139;52.140;11.636;2022-11-13T03:26:06;8.65;;;7.85;;
9424;SDS011;17139;52.140;11.636;2022-11-13T03:28:34;7.53;;;6.00;;
9424;SDS011;17139;52.140;11.636;2022-11-13T03:31:02;10.00;;;5.40;;
9424;SDS011;17139;52.140;11.636;2022-11-13T03:33:31;6.90;;;6.13;;
9424;SDS011;17139;52.140;11.636;2022-11-13T03:35:58;6.07;;;5.57;;
9424;SDS011;17139;52.140;11.636;2022-11-13T03:38:25;6.03;;;5.53;;
9424;SDS011;17139;52.140;11.636;2022-11-13T03:40:52;5.57;;;5.17;;
9424;SDS011;17139;52.140;11.636;2022-11-13T03:43:20;7.20;;;5.90;;
9424;SDS011;17139;52.140;11.636;2022-11-13T03:45:48;5.93;;;5.40;;
9424;SDS011;17139;52.140;11.636;2022-11-13T03:48:15;6.57;;;5.33;;
9424;SDS011;17139;52.140;11.636;2022-11-13T03:50:44;6.83;;;6.07;;
9424;SDS011;17139;52.140;11.636;2022-11-13T03:53:13;7.10;;;6.40;;
9424;SDS011;17139;52.140;11.636;2022-11-13T03:55:41;7.33;;;6.27;;
9424;SDS011;17139;52.140;11.636;2022-11-13T03:58:09;6.53;;;5.97;;
9424;SDS011;17139;52.140;11.636;2022-11-13T04:00:37;15.70;;;10.48;;
9424;SDS011;17139;52.140;11.636;2022-11-13T04:03:05;8.03;;;5.90;;
9424;SDS011;17139;52.140;11.636;2022-11-13T04:05:33;9.63;;;7.97;;
9424;SDS011;17139;52.140;11.636;2022-11-13T04:08:01;13.17;;;6.53;;
9424;SDS011;17139;52.140;11.636;2022-11-13T04:10:28;8.13;;;7.33;;
9424;SDS011;17139;52.140;11.636;2022-11-13T04:12:56;8.03;;;6.43;;
9424;SDS011;17139;52.140;11.636;2022-11-13T04:15:23;12.37;;;6.63;;
9424;SDS011;17139;52.140;11.636;2022-11-13T04:17:50;11.30;;;8.50;;
9424;SDS011;17139;52.140;11.636;2022-11-13T04:20:17;8.37;;;7.57;;
9424;SDS011;17139;52.140;11.636;2022-11-13T04:22:44;24.17;;;7.97;;
9424;SDS011;17139;52.140;11.636;2022-11-13T04:25:13;11.07;;;7.77;;
9424;SDS011;17139;52.140;11.636;2022-11-13T04:27:40;10.60;;;7.90;;
9424;SDS011;17139;52.140;11.636;2022-11-13T04:30:07;9.17;;;6.30;;
9424;SDS011;17139;52.140;11.636;2022-11-13T04:32:35;26.93;;;12.73;;
9424;SDS011;17139;52.140;11.636;2022-11-13T04:35:03;29.97;;;8.77;;
9424;SDS011;17139;52.140;11.636;2022-11-13T04:37:30;21.57;;;8.50;;
9424;SDS011;17139;52.140;11.636;2022-11-13T04:39:57;11.47;;;8.47;;
9424;SDS011;17139;52.140;11.636;2022-11-13T04:42:25;7.57;;;4.87;;
9424;SDS011;17139;52.140;11.636;2022-11-13T04:45:19;19.27;;;4.93;;
9424;SDS011;17139;52.140;11.636;2022-11-13T04:47:47;3.63;;;3.43;;
9424;SDS011;17139;52.140;11.636;2022-11-13T04:50:15;7.73;;;4.63;;
9424;SDS011;17139;52.140;11.636;2022-11-13T04:52:42;4.10;;;3.90;;
9424;SDS011;17139;52.140;11.636;2022-11-13T04:55:10;3.53;;;3.43;;
9424;SDS011;17139;52.140;11.636;2022-11-13T04:57:39;8.80;;;4.23;;
9424;SDS011;17139;52.140;11.636;2022-11-13T05:00:07;32.08;;;7.47;;
9424;SDS011;17139;52.140;11.636;2022-11-13T05:02:35;30.43;;;5.10;;
9424;SDS011;17139;52.140;11.636;2022-11-13T05:05:02;11.50;;;4.63;;
9424;SDS011;17139;52.140;11.636;2022-11-13T05:07:30;17.60;;;8.45;;
9424;SDS011;17139;52.140;11.636;2022-11-13T05:09:57;8.83;;;4.57;;
9424;SDS011;17139;52.140;11.636;2022-11-13T05:12:24;5.27;;;4.40;;
9424;SDS011;17139;52.140;11.636;2022-11-13T05:14:53;23.03;;;5.13;;
9424;SDS011;17139;52.140;11.636;2022-11-13T05:17:20;16.87;;;5.63;;
9424;SDS011;17139;52.140;11.636;2022-11-13T05:19:47;4.80;;;4.40;;
9424;SDS011;17139;52.140;11.636;2022-11-13T05:22:14;6.73;;;4.87;;
9424;SDS011;17139;52.140;11.636;2022-11-13T05:24:41;8.47;;;5.03;;
9424;SDS011;17139;52.140;11.636;2022-11-13T05:27:08;18.87;;;4.00;;
9424;SDS011;17139;52.140;11.636;2022-11-13T05:29:35;24.83;;;4.73;;
9424;SDS011;17139;52.140;11.636;2022-11-13T05:32:04;7.93;;;5.90;;
9424;SDS011;17139;52.140;11.636;2022-11-13T05:34:31;32.27;;;4.43;;
9424;SDS011;17139;52.140;11.636;2022-11-13T05:36:58;32.33;;;9.90;;
9424;SDS011;17139;52.140;11.636;2022-11-13T05:39:25;47.17;;;6.00;;
9424;SDS011;17139;52.140;11.636;2022-11-13T05:41:52;36.15;;;8.07;;
9424;SDS011;17139;52.140;11.636;2022-11-13T05:44:19;19.10;;;5.73;;
9424;SDS011;17139;52.140;11.636;2022-11-13T05:46:46;34.03;;;4.83;;
9424;SDS011;17139;52.140;11.636;2022-11-13T05:49:15;12.80;;;4.57;;
9424;SDS011;17139;52.140;11.636;2022-11-13T05:51:42;11.83;;;5.23;;
9424;SDS011;17139;52.140;11.636;2022-11-13T05:54:09;10.93;;;5.10;;
9424;SDS011;17139;52.140;11.636;2022-11-13T05:56:36;13.50;;;4.47;;
9424;SDS011;17139;52.140;11.636;2022-11-13T05:59:04;5.17;;;4.80;;
9424;SDS011;17139;52.140;11.636;2022-11-13T06:01:32;22.30;;;5.47;;
9424;SDS011;17139;52.140;11.636;2022-11-13T06:04:00;25.80;;;5.70;;
9424;SDS011;17139;52.140;11.636;2022-11-13T06:06:30;21.63;;;5.23;;
9424;SDS011;17139;52.140;11.636;2022-11-13T06:08:59;16.97;;;6.33;;
9424;SDS011;17139;52.140;11.636;2022-11-13T06:11:27;39.78;;;8.32;;
9424;SDS011;17139;52.140;11.636;2022-11-13T06:13:55;28.27;;;6.33;;
9424;SDS011;17139;52.140;11.636;2022-11-13T06:16:24;28.83;;;4.80;;
9424;SDS011;17139;52.140;11.636;2022-11-13T06:18:53;53.17;;;11.65;;
9424;SDS011;17139;52.140;11.636;2022-11-13T06:21:22;23.20;;;6.37;;
9424;SDS011;17139;52.140;11.636;2022-11-13T06:23:52;4.27;;;4.03;;
9424;SDS011;17139;52.140;11.636;2022-11-13T06:26:21;32.87;;;5.63;;
9424;SDS011;17139;52.140;11.636;2022-11-13T06:28:49;15.63;;;5.60;;
9424;SDS011;17139;52.140;11.636;2022-11-13T06:31:16;28.67;;;5.83;;
9424;SDS011;17139;52.140;11.636;2022-11-13T06:33:45;30.07;;;5.20;;
9424;SDS011;17139;52.140;11.636;2022-11-13T06:36:13;22.30;;;5.47;;
9424;SDS011;17139;52.140;11.636;2022-11-13T06:38:42;30.23;;;6.80;;
9424;SDS011;17139;52.140;11.636;2022-11-13T06:41:11;16.47;;;4.90;;
9424;SDS011;17139;52.140;11.636;2022-11-13T06:43:40;9.17;;;4.43;;
9424;SDS011;17139;52.140;11.636;2022-11-13T06:46:09;40.93;;;5.63;;
9424;SDS011;17139;52.140;11.636;2022-11-13T06:48:38;41.58;;;10.25;;
9424;SDS011;17139;52.140;11.636;2022-11-13T06:51:06;16.40;;;6.00;;
9424;SDS011;17139;52.140;11.636;2022-11-13T06:53:35;41.53;;;8.07;;
9424;SDS011;17139;52.140;11.636;2022-11-13T06:56:03;31.27;;;5.77;;
9424;SDS011;17139;52.140;11.636;2022-11-13T06:58:32;41.40;;;5.83;;
9424;SDS011;17139;52.140;11.636;2022-11-13T07:01:03;28.30;;;6.27;;
9424;SDS011;17139;52.140;11.636;2022-11-13T07:03:31;21.73;;;7.10;;
9424;SDS011;17139;52.140;11.636;2022-11-13T07:05:59;34.85;;;12.05;;
9424;SDS011;17139;52.140;11.636;2022-11-13T07:08:27;29.37;;;7.77;;
9424;SDS011;17139;52.140;11.636;2022-11-13T07:10:54;18.20;;;6.50;;
9424;SDS011;17139;52.140;11.636;2022-11-13T07:13:23;25.67;;;6.87;;
9424;SDS011;17139;52.140;11.636;2022-11-13T07:15:52;7.90;;;6.07;;
9424;SDS011;17139;52.140;11.636;2022-11-13T07:18:19;23.90;;;6.57;;
9424;SDS011;17139;52.140;11.636;2022-11-13T07:20:47;57.72;;;14.35;;
9424;SDS011;17139;52.140;11.636;2022-11-13T07:23:14;26.63;;;7.27;;
9424;SDS011;17139;52.140;11.636;2022-11-13T07:25:41;52.75;;;12.57;;
9424;SDS011;17139;52.140;11.636;2022-11-13T07:28:08;44.10;;;7.13;;
9424;SDS011;17139;52.140;11.636;2022-11-13T07:30:35;11.27;;;5.77;;
9424;SDS011;17139;52.140;11.636;2022-11-13T07:33:04;7.20;;;5.17;;
9424;SDS011;17139;52.140;11.636;2022-11-13T07:35:31;39.83;;;6.73;;
9424;SDS011;17139;52.140;11.636;2022-11-13T07:37:58;59.33;;;6.23;;
9424;SDS011;17139;52.140;11.636;2022-11-13T07:40:25;26.33;;;4.83;;
9424;SDS011;17139;52.140;11.636;2022-11-13T07:42:55;14.27;;;5.97;;
9424;SDS011;17139;52.140;11.636;2022-11-13T07:45:24;15.23;;;5.23;;
9424;SDS011;17139;52.140;11.636;2022-11-13T07:47:55;41.53;;;7.33;;
9424;SDS011;17139;52.140;11.636;2022-11-13T07:50:25;21.87;;;4.73;;
9424;SDS011;17139;52.140;11.636;2022-11-13T07:52:56;41.53;;;11.98;;
9424;SDS011;17139;52.140;11.636;2022-11-13T07:55:23;41.88;;;9.63;;
9424;SDS011;17139;52.140;11.636;2022-11-13T07:57:53;38.70;;;7.70;;
9424;SDS011;17139;52.140;11.636;2022-11-13T08:00:22;37.20;;;6.53;;
9424;SDS011;17139;52.140;11.636;2022-11-13T08:02:49;23.53;;;6.43;;
9424;SDS011;17139;52.140;11.636;2022-11-13T08:05:16;21.40;;;5.53;;
9424;SDS011;17139;52.140;11.636;2022-11-13T08:07:46;49.30;;;7.27;;
9424;SDS011;17139;52.140;11.636;2022-11-13T08:10:14;20.27;;;6.10;;
9424;SDS011;17139;52.140;11.636;2022-11-13T08:12:41;13.30;;;5.07;;
9424;SDS011;17139;52.140;11.636;2022-11-13T08:15:09;28.40;;;5.00;;
9424;SDS011;17139;52.140;11.636;2022-11-13T08:17:37;36.33;;;7.20;;
9424;SDS011;17139;52.140;11.636;2022-11-13T08:20:04;50.47;;;6.50;;
9424;SDS011;17139;52.140;11.636;2022-11-13T08:22:33;68.57;;;12.90;;
9424;SDS011;17139;52.140;11.636;2022-11-13T08:25:01;43.03;;;7.23;;
9424;SDS011;17139;52.140;11.636;2022-11-13T08:27:29;67.00;;;12.53;;
9424;SDS011;17139;52.140;11.636;2022-11-13T08:29:56;39.80;;;6.93;;
9424;SDS011;17139;52.140;11.636;2022-11-13T08:32:23;39.90;;;6.87;;
9424;SDS011;17139;52.140;11.636;2022-11-13T08:34:50;13.27;;;6.40;;
9424;SDS011;17139;52.140;11.636;2022-11-13T08:37:17;21.60;;;5.53;;
9424;SDS011;17139;52.140;11.636;2022-11-13T08:39:44;36.47;;;6.33;;
9424;SDS011;17139;52.140;11.636;2022-11-13T08:42:13;44.87;;;5.83;;
9424;SDS011;17139;52.140;11.636;2022-11-13T08:44:40;41.27;;;7.13;;
9424;SDS011;17139;52.140;11.636;2022-11-13T08:47:07;37.93;;;6.30;;
9424;SDS011;17139;52.140;11.636;2022-11-13T08:49:34;33.33;;;7.33;;
9424;SDS011;17139;52.140;11.636;2022-11-13T08:52:01;51.43;;;7.33;;
9424;SDS011;17139;52.140;11.636;2022-11-13T08:54:28;51.15;;;12.20;;
9424;SDS011;17139;52.140;11.636;2022-11-13T08:56:55;44.40;;;8.77;;
9424;SDS011;17139;52.140;11.636;2022-11-13T08:59:24;28.07;;;8.17;;
9424;SDS011;17139;52.140;11.636;2022-11-13T09:01:51;41.17;;;7.10;;
9424;SDS011;17139;52.140;11.636;2022-11-13T09:04:22;14.23;;;6.47;;
9424;SDS011;17139;52.140;11.636;2022-11-13T09:06:49;27.80;;;7.43;;
9424;SDS011;17139;52.140;11.636;2022-11-13T09:09:16;14.70;;;5.63;;
9424;SDS011;17139;52.140;11.636;2022-11-13T09:11:44;22.87;;;6.53;;
9424;SDS011;17139;52.140;11.636;2022-11-13T09:14:11;13.80;;;7.47;;
9424;SDS011;17139;52.140;11.636;2022-11-13T09:16:39;11.70;;;6.97;;
9424;SDS011;17139;52.140;11.636;2022-11-13T09:19:07;10.30;;;6.93;;
9424;SDS011;17139;52.140;11.636;2022-11-13T09:21:34;12.60;;;7.20;;
9424;SDS011;17139;52.140;11.636;2022-11-13T09:24:01;9.70;;;7.03;;
9424;SDS011;17139;52.140;11.636;2022-11-13T09:26:28;9.77;;;6.90;;
9424;SDS011;17139;52.140;11.636;2022-11-13T09:28:55;16.75;;;10.00;;
9424;SDS011;17139;52.140;11.636;2022-11-13T09:31:22;10.30;;;8.40;;
9424;SDS011;17139;52.140;11.636;2022-11-13T09:33:50;14.07;;;9.10;;
9424;SDS011;17139;52.140;11.636;2022-11-13T09:36:17;14.80;;;8.53;;
9424;SDS011;17139;52.140;11.636;2022-11-13T09:38:45;22.55;;;12.93;;
9424;SDS011;17139;52.140;11.636;2022-11-13T09:41:12;16.87;;;9.13;;
9424;SDS011;17139;52.140;11.636;2022-11-13T09:43:44;13.80;;;8.13;;
9424;SDS011;17139;52.140;11.636;2022-11-13T09:46:16;19.77;;;11.83;;
9424;SDS011;17139;52.140;11.636;2022-11-13T09:48:48;15.90;;;8.47;;
9424;SDS011;17139;52.140;11.636;2022-11-13T09:51:22;11.47;;;9.13;;
9424;SDS011;17139;52.140;11.636;2022-11-13T09:53:52;16.63;;;10.10;;
9424;SDS011;17139;52.140;11.636;2022-11-13T09:56:27;15.40;;;10.13;;
9424;SDS011;17139;52.140;11.636;2022-11-13T09:58:59;12.70;;;8.67;;
9424;SDS011;17139;52.140;11.636;2022-11-13T10:01:33;25.75;;;13.27;;
9424;SDS011;17139;52.140;11.636;2022-11-13T10:04:10;10.63;;;9.17;;
9424;SDS011;17139;52.140;11.636;2022-11-13T10:06:44;10.97;;;9.40;;
9424;SDS011;17139;52.140;11.636;2022-11-13T10:09:25;12.10;;;7.93;;
9424;SDS011;17139;52.140;11.636;2022-11-13T10:12:01;21.08;;;13.50;;
9424;SDS011;17139;52.140;11.636;2022-11-13T10:14:33;16.17;;;11.87;;
9424;SDS011;17139;52.140;11.636;2022-11-13T10:17:03;12.53;;;10.20;;
9424;SDS011;17139;52.140;11.636;2022-11-13T10:19:41;18.47;;;9.93;;
9424;SDS011;17139;52.140;11.636;2022-11-13T10:22:15;10.23;;;8.63;;
9424;SDS011;17139;52.140;11.636;2022-11-13T10:24:46;13.30;;;9.70;;
9424;SDS011;17139;52.140;11.636;2022-11-13T10:27:16;17.67;;;10.30;;
9424;SDS011;17139;52.140;11.636;2022-11-13T10:29:44;14.30;;;8.77;;
9424;SDS011;17139;52.140;11.636;2022-11-13T10:32:14;11.07;;;9.40;;
9424;SDS011;17139;52.140;11.636;2022-11-13T10:34:47;14.63;;;9.97;;
9424;SDS011;17139;52.140;11.636;2022-11-13T10:37:23;12.07;;;9.60;;
9424;SDS011;17139;52.140;11.636;2022-11-13T10:39:59;9.17;;;8.37;;
9424;SDS011;17139;52.140;11.636;2022-11-13T10:42:27;9.10;;;8.27;;
9424;SDS011;17139;52.140;11.636;2022-11-13T10:45:00;10.83;;;8.80;;
9424;SDS011;17139;52.140;11.636;2022-11-13T10:47:30;22.53;;;15.57;;
9424;SDS011;17139;52.140;11.636;2022-11-13T10:50:08;13.20;;;11.63;;
9424;SDS011;17139;52.140;11.636;2022-11-13T10:52:43;10.80;;;9.57;;
9424;SDS011;17139;52.140;11.636;2022-11-13T10:55:13;16.20;;;10.10;;
9424;SDS011;17139;52.140;11.636;2022-11-13T10:57:53;22.63;;;15.80;;
9424;SDS011;17139;52.140;11.636;2022-11-13T11:00:22;12.67;;;10.87;;
9424;SDS011;17139;52.140;11.636;2022-11-13T11:02:50;15.70;;;10.40;;
9424;SDS011;17139;52.140;11.636;2022-11-13T11:05:20;12.13;;;10.30;;
9424;SDS011;17139;52.140;11.636;2022-11-13T11:07:48;11.80;;;9.53;;
9424;SDS011;17139;52.140;11.636;2022-11-13T11:10:20;12.50;;;10.60;;
9424;SDS011;17139;52.140;11.636;2022-11-13T11:12:51;11.33;;;10.17;;
9424;SDS011;17139;52.140;11.636;2022-11-13T11:15:20;14.77;;;11.50;;
9424;SDS011;17139;52.140;11.636;2022-11-13T11:17:50;14.47;;;11.10;;
9424;SDS011;17139;52.140;11.636;2022-11-13T11:20:24;14.47;;;11.13;;
9424;SDS011;17139;52.140;11.636;2022-11-13T11:23:02;12.23;;;10.03;;
9424;SDS011;17139;52.140;11.636;2022-11-13T11:25:38;13.17;;;10.23;;
9424;SDS011;17139;52.140;11.636;2022-11-13T11:28:10;11.90;;;9.87;;
9424;SDS011;17139;52.140;11.636;2022-11-13T11:30:42;13.53;;;12.10;;
9424;SDS011;17139;52.140;11.636;2022-11-13T11:33:16;13.50;;;11.27;;
9424;SDS011;17139;52.140;11.636;2022-11-13T11:35:51;13.73;;;11.97;;
9424;SDS011;17139;52.140;11.636;2022-11-13T11:38:24;15.40;;;11.10;;
9424;SDS011;17139;52.140;11.636;2022-11-13T11:40:54;16.87;;;12.03;;
9424;SDS011;17139;52.140;11.636;2022-11-13T11:43:32;10.17;;;9.23;;
9424;SDS011;17139;52.140;11.636;2022-11-13T11:46:08;20.77;;;16.88;;
9424;SDS011;17139;52.140;11.636;2022-11-13T11:48:36;16.37;;;12.43;;
9424;SDS011;17139;52.140;11.636;2022-11-13T11:51:11;14.70;;;12.07;;
9424;SDS011;17139;52.140;11.636;2022-11-13T11:53:48;16.23;;;11.63;;
9424;SDS011;17139;52.140;11.636;2022-11-13T11:56:24;12.30;;;11.10;;
9424;SDS011;17139;52.140;11.636;2022-11-13T11:59:11;12.10;;;10.60;;
9424;SDS011;17139;52.140;11.636;2022-11-13T12:01:52;13.67;;;10.63;;
9424;SDS011;17139;52.140;11.636;2022-11-13T12:04:43;13.27;;;10.57;;
9424;SDS011;17139;52.140;11.636;2022-11-13T12:07:28;13.07;;;10.40;;
9424;SDS011;17139;52.140;11.636;2022-11-13T12:10:06;11.37;;;10.37;;
9424;SDS011;17139;52.140;11.636;2022-11-13T12:12:47;12.40;;;10.77;;
9424;SDS011;17139;52.140;11.636;2022-11-13T12:15:29;9.77;;;8.77;;
9424;SDS011;17139;52.140;11.636;2022-11-13T12:18:03;10.60;;;9.43;;
9424;SDS011;17139;52.140;11.636;2022-11-13T12:20:38;12.63;;;11.03;;
9424;SDS011;17139;52.140;11.636;2022-11-13T12:23:16;12.07;;;10.60;;
9424;SDS011;17139;52.140;11.636;2022-11-13T12:25:53;15.73;;;10.17;;
9424;SDS011;17139;52.140;11.636;2022-11-13T12:28:28;10.97;;;9.90;;
9424;SDS011;17139;52.140;11.636;2022-11-13T12:31:06;13.20;;;10.90;;
9424;SDS011;17139;52.140;11.636;2022-11-13T12:33:43;15.20;;;10.87;;
9424;SDS011;17139;52.140;11.636;2022-11-13T12:36:17;17.37;;;11.60;;
9424;SDS011;17139;52.140;11.636;2022-11-13T12:38:49;14.23;;;11.20;;
9424;SDS011;17139;52.140;11.636;2022-11-13T12:41:26;16.20;;;11.77;;
9424;SDS011;17139;52.140;11.636;2022-11-13T12:44:01;16.55;;;12.57;;
9424;SDS011;17139;52.140;11.636;2022-11-13T12:46:39;13.90;;;11.87;;
9424;SDS011;17139;52.140;11.636;2022-11-13T12:51:59;19.30;;;17.23;;
9424;SDS011;17139;52.140;11.636;2022-11-13T12:54:29;17.43;;;13.20;;
9424;SDS011;17139;52.140;11.636;2022-11-13T12:59:48;12.00;;;10.80;;
9424;SDS011;17139;52.140;11.636;2022-11-13T13:02:32;13.97;;;11.93;;
9424;SDS011;17139;52.140;11.636;2022-11-13T13:05:22;13.97;;;10.80;;
9424;SDS011;17139;52.140;11.636;2022-11-13T13:08:06;14.87;;;11.00;;
9424;SDS011;17139;52.140;11.636;2022-11-13T13:10:52;13.03;;;11.33;;
9424;SDS011;17139;52.140;11.636;2022-11-13T13:13:29;15.70;;;10.30;;
9424;SDS011;17139;52.140;11.636;2022-11-13T13:16:03;13.07;;;11.00;;
9424;SDS011;17139;52.140;11.636;2022-11-13T13:18:33;11.53;;;10.37;;
9424;SDS011;17139;52.140;11.636;2022-11-13T13:21:03;21.50;;;17.52;;
9424;SDS011;17139;52.140;11.636;2022-11-13T13:23:32;16.63;;;12.63;;
9424;SDS011;17139;52.140;11.636;2022-11-13T13:26:04;21.73;;;18.63;;
9424;SDS011;17139;52.140;11.636;2022-11-13T13:28:32;17.23;;;13.60;;
9424;SDS011;17139;52.140;11.636;2022-11-13T13:31:05;16.20;;;13.77;;
9424;SDS011;17139;52.140;11.636;2022-11-13T13:33:43;15.07;;;11.77;;
9424;SDS011;17139;52.140;11.636;2022-11-13T13:36:20;13.20;;;11.13;;
9424;SDS011;17139;52.140;11.636;2022-11-13T13:38:57;12.77;;;11.53;;
9424;SDS011;17139;52.140;11.636;2022-11-13T13:41:35;13.67;;;12.13;;
9424;SDS011;17139;52.140;11.636;2022-11-13T13:44:17;13.90;;;12.20;;
9424;SDS011;17139;52.140;11.636;2022-11-13T13:46:54;12.30;;;10.97;;
9424;SDS011;17139;52.140;11.636;2022-11-13T13:49:22;15.60;;;12.50;;
9424;SDS011;17139;52.140;11.636;2022-11-13T13:51:51;13.07;;;11.70;;
9424;SDS011;17139;52.140;11.636;2022-11-13T13:54:19;14.10;;;11.63;;
9424;SDS011;17139;52.140;11.636;2022-11-13T13:56:51;12.33;;;11.00;;
9424;SDS011;17139;52.140;11.636;2022-11-13T13:59:20;17.83;;;11.13;;
9424;SDS011;17139;52.140;11.636;2022-11-13T14:01:52;14.40;;;10.83;;
9424;SDS011;17139;52.140;11.636;2022-11-13T14:04:23;14.57;;;11.53;;
9424;SDS011;17139;52.140;11.636;2022-11-13T14:06:52;11.47;;;10.40;;
9424;SDS011;17139;52.140;11.636;2022-11-13T14:09:21;12.60;;;10.57;;
9424;SDS011;17139;52.140;11.636;2022-11-13T14:11:56;16.77;;;12.20;;
9424;SDS011;17139;52.140;11.636;2022-11-13T14:14:24;13.23;;;10.97;;
9424;SDS011;17139;52.140;11.636;2022-11-13T14:16:52;18.30;;;10.60;;
9424;SDS011;17139;52.140;11.636;2022-11-13T14:19:21;14.77;;;11.07;;
9424;SDS011;17139;52.140;11.636;2022-11-13T14:21:49;18.40;;;15.27;;
9424;SDS011;17139;52.140;11.636;2022-11-13T14:24:19;12.80;;;11.57;;
9424;SDS011;17139;52.140;11.636;2022-11-13T14:26:49;12.77;;;11.40;;
9424;SDS011;17139;52.140;11.636;2022-11-13T14:29:32;11.97;;;10.77;;
9424;SDS011;17139;52.140;11.636;2022-11-13T14:32:02;14.33;;;11.43;;
9424;SDS011;17139;52.140;11.636;2022-11-13T14:34:30;11.77;;;10.43;;
9424;SDS011;17139;52.140;11.636;2022-11-13T14:37:04;11.90;;;10.70;;
9424;SDS011;17139;52.140;11.636;2022-11-13T14:39:54;14.00;;;10.70;;
9424;SDS011;17139;52.140;11.636;2022-11-13T14:42:25;13.10;;;10.37;;
9424;SDS011;17139;52.140;11.636;2022-11-13T14:45:17;12.10;;;11.00;;
9424;SDS011;17139;52.140;11.636;2022-11-13T14:47:54;12.27;;;10.83;;
9424;SDS011;17139;52.140;11.636;2022-11-13T14:50:24;11.17;;;9.90;;
9424;SDS011;17139;52.140;11.636;2022-11-13T14:52:56;11.17;;;10.03;;
9424;SDS011;17139;52.140;11.636;2022-11-13T14:55:25;11.97;;;10.03;;
9424;SDS011;17139;52.140;11.636;2022-11-13T14:57:53;11.57;;;10.53;;